YMA7123 YPKA-YBRM
Flight info
| Callsign | YMA7123 |
|---|---|
| Flight time | 0h 53m |
| Altitude | 31000 |
| Route | YPKA PD J151 SAFIR BUDLO YBRM |
| Aircraft | B738/M-L/2000 |
Departure
| Time | 2026-04-18 08:02 |
|---|---|
| Airport | Karratha Airport (YPKA) |
Arrival
| Time | 2026-04-18 08:56 |
|---|---|
| Airport | Broome International Airport (YBRM) |
| Time | Latitude | Longitude | Altitude | Speed | Heading |
|---|---|---|---|---|---|
| 2026-04-18 07:39 | -20.70966 | 116.76903 | 41 ft | 0 kts | 28° |
| 2026-04-18 07:58 | -20.70965 | 116.76911 | 41 ft | 1 kts | 108° |
| 2026-04-18 07:59 | -20.70997 | 116.76942 | 41 ft | 10 kts | 112° |
| 2026-04-18 07:59 | -20.71023 | 116.77026 | 40 ft | 13 kts | 126° |
| 2026-04-18 07:59 | -20.71099 | 116.77055 | 41 ft | 10 kts | 172° |
| 2026-04-18 07:59 | -20.71161 | 116.77022 | 42 ft | 11 kts | 255° |
| 2026-04-18 08:00 | -20.71175 | 116.76920 | 43 ft | 14 kts | 263° |
| 2026-04-18 08:00 | -20.71185 | 116.76820 | 43 ft | 13 kts | 263° |
| 2026-04-18 08:00 | -20.71198 | 116.76684 | 43 ft | 22 kts | 265° |
| 2026-04-18 08:00 | -20.71217 | 116.76526 | 43 ft | 20 kts | 256° |
| 2026-04-18 08:01 | -20.71316 | 116.76472 | 43 ft | 8 kts | 175° |
| 2026-04-18 08:01 | -20.71385 | 116.76497 | 44 ft | 10 kts | 141° |
| 2026-04-18 08:01 | -20.71396 | 116.76528 | 44 ft | 0 kts | 83° |
| 2026-04-18 08:01 | -20.71389 | 116.76582 | 44 ft | 37 kts | 82° |
| 2026-04-18 08:02 | -20.71323 | 116.77199 | 42 ft | 126 kts | 83° |
| 2026-04-18 08:02 | -20.71194 | 116.78387 | 34 ft | 195 kts | 83° |
| 2026-04-18 08:02 | -20.71092 | 116.79780 | 1022 ft | 170 kts | 83° |
| 2026-04-18 08:02 | -20.70946 | 116.81044 | 1494 ft | 185 kts | 79° |
| 2026-04-18 08:03 | -20.70773 | 116.82507 | 2028 ft | 214 kts | 82° |
| 2026-04-18 08:03 | -20.70583 | 116.84184 | 2622 ft | 240 kts | 82° |
| 2026-04-18 08:03 | -20.70385 | 116.86041 | 3262 ft | 262 kts | 83° |
| 2026-04-18 08:03 | -20.70176 | 116.87974 | 3871 ft | 266 kts | 79° |
| 2026-04-18 08:04 | -20.69833 | 116.89907 | 4474 ft | 267 kts | 79° |
| 2026-04-18 08:04 | -20.69481 | 116.91860 | 5077 ft | 268 kts | 79° |
| 2026-04-18 08:04 | -20.69120 | 116.93806 | 5684 ft | 270 kts | 79° |
| 2026-04-18 08:04 | -20.68800 | 116.95496 | 6197 ft | 272 kts | 79° |
| 2026-04-18 08:05 | -20.68422 | 116.97488 | 6825 ft | 276 kts | 79° |
| 2026-04-18 08:05 | -20.68041 | 116.99509 | 7460 ft | 278 kts | 79° |
| 2026-04-18 08:05 | -20.67662 | 117.01531 | 8081 ft | 280 kts | 79° |
| 2026-04-18 08:05 | -20.67327 | 117.03416 | 8638 ft | 282 kts | 80° |
| 2026-04-18 08:06 | -20.66962 | 117.05504 | 9258 ft | 285 kts | 80° |
| 2026-04-18 08:06 | -20.66599 | 117.07587 | 9841 ft | 293 kts | 80° |
| 2026-04-18 08:06 | -20.66437 | 117.08537 | 10098 ft | 294 kts | 80° |
| 2026-04-18 08:06 | -20.66044 | 117.10738 | 10713 ft | 311 kts | 79° |
| 2026-04-18 08:07 | -20.65626 | 117.13081 | 11294 ft | 329 kts | 79° |
| 2026-04-18 08:07 | -20.65194 | 117.15517 | 11856 ft | 346 kts | 79° |
| 2026-04-18 08:07 | -20.64736 | 117.18107 | 12426 ft | 362 kts | 79° |
| 2026-04-18 08:07 | -20.64266 | 117.20785 | 12983 ft | 376 kts | 79° |
| 2026-04-18 08:08 | -20.63757 | 117.23532 | 13526 ft | 380 kts | 78° |
| 2026-04-18 08:08 | -20.63224 | 117.26296 | 14035 ft | 382 kts | 78° |
| 2026-04-18 08:08 | -20.62694 | 117.29060 | 14526 ft | 386 kts | 78° |
| 2026-04-18 08:08 | -20.62158 | 117.31853 | 15007 ft | 389 kts | 78° |
| 2026-04-18 08:09 | -20.61617 | 117.34732 | 15541 ft | 394 kts | 79° |
| 2026-04-18 08:09 | -20.61124 | 117.37577 | 16009 ft | 399 kts | 79° |
| 2026-04-18 08:09 | -20.60614 | 117.40520 | 16477 ft | 402 kts | 79° |
| 2026-04-18 08:09 | -20.60083 | 117.43452 | 16957 ft | 406 kts | 78° |
| 2026-04-18 08:10 | -20.59519 | 117.46424 | 17445 ft | 410 kts | 78° |
| 2026-04-18 08:10 | -20.58958 | 117.49381 | 17888 ft | 414 kts | 78° |
| 2026-04-18 08:10 | -20.58384 | 117.52413 | 18359 ft | 417 kts | 78° |
| 2026-04-18 08:10 | -20.57815 | 117.55438 | 18810 ft | 421 kts | 78° |
| 2026-04-18 08:11 | -20.57234 | 117.58527 | 19268 ft | 424 kts | 78° |
| 2026-04-18 08:11 | -20.56656 | 117.61620 | 19689 ft | 428 kts | 78° |
| 2026-04-18 08:11 | -20.56077 | 117.64730 | 20137 ft | 432 kts | 78° |
| 2026-04-18 08:11 | -20.55492 | 117.67897 | 20564 ft | 436 kts | 78° |
| 2026-04-18 08:12 | -20.54911 | 117.71045 | 20992 ft | 439 kts | 78° |
| 2026-04-18 08:12 | -20.54322 | 117.74236 | 21397 ft | 442 kts | 78° |
| 2026-04-18 08:12 | -20.53725 | 117.77492 | 21800 ft | 447 kts | 78° |
| 2026-04-18 08:12 | -20.53136 | 117.80720 | 22203 ft | 450 kts | 78° |
| 2026-04-18 08:13 | -20.52535 | 117.84022 | 22625 ft | 452 kts | 78° |
| 2026-04-18 08:13 | -20.51944 | 117.87281 | 23039 ft | 456 kts | 78° |
| 2026-04-18 08:13 | -20.51341 | 117.90615 | 23462 ft | 459 kts | 78° |
| 2026-04-18 08:13 | -20.50735 | 117.93978 | 23859 ft | 461 kts | 78° |
| 2026-04-18 08:14 | -20.50119 | 117.97309 | 24249 ft | 464 kts | 77° |
| 2026-04-18 08:14 | -20.49463 | 118.00700 | 24649 ft | 469 kts | 77° |
| 2026-04-18 08:14 | -20.48807 | 118.04105 | 25042 ft | 471 kts | 77° |
| 2026-04-18 08:14 | -20.48147 | 118.07543 | 25440 ft | 473 kts | 77° |
| 2026-04-18 08:15 | -20.47485 | 118.10986 | 25838 ft | 476 kts | 77° |
| 2026-04-18 08:15 | -20.46830 | 118.14406 | 26214 ft | 478 kts | 77° |
| 2026-04-18 08:15 | -20.46161 | 118.17914 | 26595 ft | 481 kts | 77° |
| 2026-04-18 08:15 | -20.45501 | 118.21384 | 26965 ft | 483 kts | 77° |
| 2026-04-18 08:16 | -20.44838 | 118.24905 | 27339 ft | 486 kts | 77° |
| 2026-04-18 08:16 | -20.44168 | 118.28491 | 27717 ft | 489 kts | 77° |
| 2026-04-18 08:16 | -20.43287 | 118.33234 | 28227 ft | 490 kts | 77° |
| 2026-04-18 08:16 | -20.41974 | 118.40402 | 28972 ft | 492 kts | 77° |
| 2026-04-18 08:17 | -20.40669 | 118.47489 | 29667 ft | 494 kts | 77° |
| 2026-04-18 08:17 | -20.38949 | 118.56364 | 30551 ft | 495 kts | 76° |
| 2026-04-18 08:17 | -20.38259 | 118.59934 | 30838 ft | 498 kts | 77° |
| 2026-04-18 08:17 | -20.37446 | 118.63551 | 30812 ft | 503 kts | 66° |
| 2026-04-18 08:18 | -20.35803 | 118.66804 | 30886 ft | 504 kts | 56° |
| 2026-04-18 08:18 | -20.32261 | 118.73349 | 30856 ft | 513 kts | 57° |
| 2026-04-18 08:19 | -20.28834 | 118.79942 | 30854 ft | 508 kts | 58° |
| 2026-04-18 08:19 | -20.25428 | 118.86523 | 30851 ft | 508 kts | 58° |
| 2026-04-18 08:20 | -20.22018 | 118.93116 | 30854 ft | 509 kts | 58° |
| 2026-04-18 08:20 | -20.18607 | 118.99717 | 30855 ft | 508 kts | 58° |
| 2026-04-18 08:21 | -20.15201 | 119.06298 | 30853 ft | 508 kts | 58° |
| 2026-04-18 08:21 | -20.11891 | 119.12905 | 30854 ft | 507 kts | 59° |
| 2026-04-18 08:22 | -20.08509 | 119.19452 | 30855 ft | 505 kts | 58° |
| 2026-04-18 08:22 | -20.05121 | 119.26009 | 30856 ft | 507 kts | 58° |
| 2026-04-18 08:23 | -20.01743 | 119.32557 | 30868 ft | 506 kts | 58° |
| 2026-04-18 08:23 | -19.98357 | 119.39116 | 30859 ft | 508 kts | 58° |
| 2026-04-18 08:24 | -19.94983 | 119.45657 | 30864 ft | 507 kts | 58° |
| 2026-04-18 08:24 | -19.91591 | 119.52201 | 30868 ft | 503 kts | 58° |
| 2026-04-18 08:25 | -19.88230 | 119.58704 | 30865 ft | 506 kts | 58° |
| 2026-04-18 08:25 | -19.84841 | 119.65253 | 30867 ft | 505 kts | 58° |
| 2026-04-18 08:26 | -19.81465 | 119.71782 | 30859 ft | 504 kts | 58° |
| 2026-04-18 08:26 | -19.78091 | 119.78282 | 30861 ft | 502 kts | 58° |
| 2026-04-18 08:27 | -19.74738 | 119.84744 | 30854 ft | 503 kts | 58° |
| 2026-04-18 08:27 | -19.71341 | 119.91264 | 30860 ft | 502 kts | 58° |
| 2026-04-18 08:28 | -19.67969 | 119.97730 | 30851 ft | 502 kts | 58° |
| 2026-04-18 08:28 | -19.64599 | 120.04190 | 30857 ft | 502 kts | 58° |
| 2026-04-18 08:29 | -19.61224 | 120.10655 | 30856 ft | 501 kts | 58° |
| 2026-04-18 08:29 | -19.57847 | 120.17130 | 30858 ft | 503 kts | 58° |
| 2026-04-18 08:30 | -19.54462 | 120.23599 | 30857 ft | 502 kts | 58° |
| 2026-04-18 08:30 | -19.51081 | 120.30070 | 30856 ft | 501 kts | 58° |
| 2026-04-18 08:31 | -19.47708 | 120.36537 | 30855 ft | 501 kts | 58° |
| 2026-04-18 08:31 | -19.44507 | 120.42670 | 30855 ft | 501 kts | 58° |
| 2026-04-18 08:32 | -19.41125 | 120.49137 | 30853 ft | 501 kts | 58° |
| 2026-04-18 08:32 | -19.37706 | 120.55540 | 30847 ft | 500 kts | 57° |
| 2026-04-18 08:33 | -19.34290 | 120.61951 | 30853 ft | 502 kts | 57° |
| 2026-04-18 08:33 | -19.30818 | 120.68334 | 30840 ft | 500 kts | 58° |
| 2026-04-18 08:34 | -19.27444 | 120.74754 | 30839 ft | 498 kts | 58° |
| 2026-04-18 08:34 | -19.24066 | 120.81109 | 30836 ft | 499 kts | 57° |
| 2026-04-18 08:35 | -19.20590 | 120.87477 | 30836 ft | 498 kts | 58° |
| 2026-04-18 08:35 | -19.17223 | 120.93864 | 30834 ft | 498 kts | 58° |
| 2026-04-18 08:36 | -19.13792 | 121.00248 | 30835 ft | 500 kts | 57° |
| 2026-04-18 08:36 | -19.10350 | 121.06564 | 30832 ft | 499 kts | 57° |
| 2026-04-18 08:37 | -19.06973 | 121.12965 | 30384 ft | 501 kts | 58° |
| 2026-04-18 08:37 | -19.05268 | 121.16157 | 29689 ft | 491 kts | 57° |
| 2026-04-18 08:37 | -19.03585 | 121.19222 | 28988 ft | 481 kts | 57° |
| 2026-04-18 08:37 | -19.01933 | 121.22262 | 28497 ft | 472 kts | 58° |
| 2026-04-18 08:38 | -19.00345 | 121.25256 | 28038 ft | 471 kts | 58° |
| 2026-04-18 08:38 | -18.98738 | 121.28277 | 27538 ft | 472 kts | 58° |
| 2026-04-18 08:38 | -18.97136 | 121.31267 | 26927 ft | 471 kts | 58° |
| 2026-04-18 08:38 | -18.95519 | 121.34274 | 26353 ft | 463 kts | 58° |
| 2026-04-18 08:39 | -18.93939 | 121.37210 | 25851 ft | 459 kts | 58° |
| 2026-04-18 08:39 | -18.92362 | 121.40103 | 25365 ft | 454 kts | 58° |
| 2026-04-18 08:39 | -18.90799 | 121.42963 | 24881 ft | 452 kts | 58° |
| 2026-04-18 08:39 | -18.89218 | 121.45840 | 24388 ft | 450 kts | 58° |
| 2026-04-18 08:40 | -18.87664 | 121.48688 | 23637 ft | 451 kts | 59° |
| 2026-04-18 08:40 | -18.86144 | 121.51514 | 23061 ft | 442 kts | 59° |
| 2026-04-18 08:40 | -18.84619 | 121.54344 | 22552 ft | 437 kts | 59° |
| 2026-04-18 08:40 | -18.83117 | 121.57107 | 22070 ft | 436 kts | 59° |
| 2026-04-18 08:41 | -18.81603 | 121.59882 | 21442 ft | 435 kts | 59° |
| 2026-04-18 08:41 | -18.80121 | 121.62613 | 20960 ft | 429 kts | 60° |
| 2026-04-18 08:41 | -18.78578 | 121.65249 | 20413 ft | 423 kts | 47° |
| 2026-04-18 08:41 | -18.76251 | 121.67127 | 19897 ft | 417 kts | 25° |
| 2026-04-18 08:42 | -18.73576 | 121.68227 | 19245 ft | 411 kts | 19° |
| 2026-04-18 08:42 | -18.70921 | 121.69282 | 18745 ft | 406 kts | 19° |
| 2026-04-18 08:42 | -18.68291 | 121.70360 | 18260 ft | 405 kts | 20° |
| 2026-04-18 08:42 | -18.65654 | 121.71453 | 17674 ft | 402 kts | 20° |
| 2026-04-18 08:43 | -18.63087 | 121.72549 | 17223 ft | 398 kts | 21° |
| 2026-04-18 08:43 | -18.60545 | 121.73648 | 16584 ft | 398 kts | 21° |
| 2026-04-18 08:43 | -18.57985 | 121.74751 | 16033 ft | 389 kts | 21° |
| 2026-04-18 08:43 | -18.55487 | 121.75825 | 15569 ft | 381 kts | 21° |
| 2026-04-18 08:44 | -18.53052 | 121.76869 | 15015 ft | 379 kts | 21° |
| 2026-04-18 08:44 | -18.50637 | 121.77944 | 14566 ft | 376 kts | 22° |
| 2026-04-18 08:44 | -18.48222 | 121.79022 | 13947 ft | 371 kts | 22° |
| 2026-04-18 08:44 | -18.45880 | 121.80062 | 13579 ft | 364 kts | 22° |
| 2026-04-18 08:45 | -18.43525 | 121.81105 | 13096 ft | 363 kts | 22° |
| 2026-04-18 08:45 | -18.41218 | 121.82119 | 12625 ft | 361 kts | 22° |
| 2026-04-18 08:45 | -18.38902 | 121.83131 | 12160 ft | 356 kts | 22° |
| 2026-04-18 08:45 | -18.36627 | 121.84119 | 11735 ft | 353 kts | 22° |
| 2026-04-18 08:46 | -18.34358 | 121.85102 | 11263 ft | 351 kts | 22° |
| 2026-04-18 08:46 | -18.32132 | 121.86058 | 10875 ft | 346 kts | 22° |
| 2026-04-18 08:46 | -18.29943 | 121.87006 | 10465 ft | 324 kts | 23° |
| 2026-04-18 08:46 | -18.27950 | 121.87888 | 10141 ft | 299 kts | 23° |
| 2026-04-18 08:47 | -18.26065 | 121.88721 | 9910 ft | 287 kts | 23° |
| 2026-04-18 08:47 | -18.24227 | 121.89530 | 9584 ft | 286 kts | 23° |
| 2026-04-18 08:47 | -18.22401 | 121.90331 | 9303 ft | 285 kts | 23° |
| 2026-04-18 08:47 | -18.20550 | 121.91138 | 8974 ft | 286 kts | 23° |
| 2026-04-18 08:48 | -18.18724 | 121.91927 | 8673 ft | 283 kts | 23° |
| 2026-04-18 08:48 | -18.16893 | 121.92713 | 8347 ft | 279 kts | 23° |
| 2026-04-18 08:48 | -18.15116 | 121.93481 | 8062 ft | 274 kts | 24° |
| 2026-04-18 08:48 | -18.13374 | 121.94244 | 7714 ft | 270 kts | 24° |
| 2026-04-18 08:49 | -18.11635 | 121.94997 | 7406 ft | 266 kts | 24° |
| 2026-04-18 08:49 | -18.09949 | 121.95719 | 7116 ft | 262 kts | 24° |
| 2026-04-18 08:49 | -18.08261 | 121.96455 | 6811 ft | 258 kts | 25° |
| 2026-04-18 08:49 | -18.06612 | 121.97192 | 6504 ft | 256 kts | 25° |
| 2026-04-18 08:50 | -18.04979 | 121.97909 | 6195 ft | 255 kts | 25° |
| 2026-04-18 08:50 | -18.03340 | 121.98622 | 5941 ft | 250 kts | 26° |
| 2026-04-18 08:50 | -18.01751 | 121.99335 | 5679 ft | 246 kts | 26° |
| 2026-04-18 08:50 | -18.00195 | 122.00032 | 5393 ft | 242 kts | 26° |
| 2026-04-18 08:51 | -17.98652 | 122.00723 | 5164 ft | 240 kts | 26° |
| 2026-04-18 08:51 | -17.97109 | 122.01412 | 4864 ft | 238 kts | 26° |
| 2026-04-18 08:51 | -17.95601 | 122.02079 | 4586 ft | 235 kts | 26° |
| 2026-04-18 08:51 | -17.94076 | 122.02726 | 4348 ft | 233 kts | 25° |
| 2026-04-18 08:52 | -17.92578 | 122.03364 | 4065 ft | 233 kts | 29° |
| 2026-04-18 08:52 | -17.91463 | 122.04504 | 3605 ft | 222 kts | 71° |
| 2026-04-18 08:52 | -17.91340 | 122.06048 | 3308 ft | 211 kts | 96° |
| 2026-04-18 08:52 | -17.91535 | 122.07562 | 3040 ft | 211 kts | 97° |
| 2026-04-18 08:53 | -17.91744 | 122.09078 | 2767 ft | 211 kts | 97° |
| 2026-04-18 08:53 | -17.91952 | 122.10565 | 2526 ft | 196 kts | 97° |
| 2026-04-18 08:53 | -17.92188 | 122.11906 | 2248 ft | 181 kts | 101° |
| 2026-04-18 08:53 | -17.92454 | 122.13108 | 1985 ft | 159 kts | 103° |
| 2026-04-18 08:54 | -17.92636 | 122.13889 | 1809 ft | 158 kts | 102° |
| 2026-04-18 08:54 | -17.92897 | 122.15008 | 1586 ft | 158 kts | 103° |
| 2026-04-18 08:54 | -17.93167 | 122.16109 | 1340 ft | 153 kts | 103° |
| 2026-04-18 08:54 | -17.93428 | 122.17182 | 1101 ft | 149 kts | 104° |
| 2026-04-18 08:55 | -17.93691 | 122.18214 | 867 ft | 146 kts | 104° |
| 2026-04-18 08:55 | -17.93956 | 122.19257 | 637 ft | 148 kts | 105° |
| 2026-04-18 08:55 | -17.94229 | 122.20300 | 399 ft | 150 kts | 105° |
| 2026-04-18 08:55 | -17.94510 | 122.21352 | 152 ft | 149 kts | 106° |
| 2026-04-18 08:56 | -17.94764 | 122.22310 | 70 ft | 103 kts | 105° |
| 2026-04-18 08:56 | -17.94875 | 122.22719 | 65 ft | 45 kts | 106° |
| 2026-04-18 08:56 | -17.94965 | 122.23036 | 56 ft | 44 kts | 107° |
| 2026-04-18 08:56 | -17.95027 | 122.23315 | 48 ft | 30 kts | 103° |
| 2026-04-18 08:57 | -17.95067 | 122.23444 | 45 ft | 16 kts | 118° |
| 2026-04-18 08:57 | -17.95159 | 122.23460 | 46 ft | 13 kts | 194° |
| 2026-04-18 08:57 | -17.95201 | 122.23469 | 46 ft | 4 kts | 179° |
| 2026-04-18 08:58 | -17.95216 | 122.23449 | 46 ft | 2 kts | 253° |
| 2026-04-18 08:58 | -17.95217 | 122.23448 | 46 ft | 0 kts | 254° |